Owens Cross Roads, Alabama
Current Conditions -  °F | °C
As of 7:58 AM on Friday 19 Dec 2014 (Local Time) from KHUA Reporting Station
Overcast Overcast  
Wind Chill: 34°   Ceiling: 3600
Heat Index: 37°   Visibility: 10mi
Dew Point: 34°   Wind: 5mph
Humidity: 87%   Direction: 10°N
Pressure: 30.23"   Gusts: NA
Location:  34.59°N, 86.46°W
Report Text: KHUA 191358Z AUTO 01004KT 10SM OVC036 03/01 A3023 RMK AO2 SLP241
Loading
Personal Weather Stations






























Interactive Weather Map New forecast layout! Learn more

10-Day Weather Forecast

Advertisements
Track Severe Weather on mobile